Latest Observation

39 Stations

15 Minute Data | America/Los_Angeles
as of 1/17/22 10:35 PM PST
Station Date Time Temp (°F) RH (%) Dew Pt (°F) Wind Dir (°) Wind Spd (mph) Wind Gust (mph) Solar Rad (W/m2) Latest Rain (In) Daily Rain (In) Daily Max Temp (°F) Daily Min Temp (°F) Daily Max Wind (mph) Daily ETo (in) Daily Leaf Wet Hrs (hrs)
Colony 1 1/17/22 2230 39.7   2.8 98   2 39.3   2.3 NE | 55 0.9   0.5 1.6   0.4 0   0 0.00 0.00 59.2   0.5 33.5   6.7 6.1   0.7 0.038   0.002 -
Colony 2 1/17/22 2230 39.0   3.2 96   1 38.1   2.9 ENE | 63 1.6   1.2 2.7   1.3 0   0 0.00 0.00 60.3   1.6 33.3   6.6 7.3   0.0 0.033   0.007 -
5 Wells 1/17/22 2230 41.5   1.4 100   0 41.5   1.4 N | 0 0.0   0.1 0.0   1.4 3   1 0.00 0.00 57.0   1.2 33.9   6.2 7.3   0.6 0.033   0.005 -
Simmerhorn 1/17/22 2230 41.4   2.3 100   0 41.4   2.4 - - - - - - 56.2   1.4 34.0   6.2 - - -
Galt-East 1/17/22 2230 43.1   1.2 100   0 43.1   1.2 W | 262 0.0   0.0 0.5   0.0 0   0 0.00 0.01 56.8   0.8 34.2   5.2 6.3   1.4 0.025   0.007 -
Borden Hills 1/17/22 2230 43.7   0.5 94   1 42.1   0.7 ENE | 69 3.4   0.4 3.9   0.2 0   0 0.00 0.00 56.0   4.1 35.7   5.9 6.9   0.2 0.030   0.010 -
Sierra Loma-L27 1/17/22 2230 44.3   0.5 94   2 42.7   0.0 NNE | 32 1.0   0.5 1.8   0.9 - 0.00 0.00 56.3   2.1 36.3   5.4 7.1   0.4 - -
Lockeford 1/17/22 2230 44.4   0.3 93   1 42.6   0.6 N | 0 0.0   0.0 0.0   0.0 1   0 0.00 0.00 58.8   1.6 34.2   5.1 7.8   0.7 0.046   0.007 13.8   1.8
Lone Oak-L28 1/17/22 2230 42.3   1.5 97   0 41.5   1.5 S | 171 1.4   0.5 4.0   2.4 - 0.00 0.00 64.1   5.4 33.4   6.6 7.1   0.8 - -
Kost Rd 1/17/22 2230 43.0   0.3 100   0 43.0   0.2 N | 0 0.0   1.1 0.0   1.5 0   0 0.00 0.00 58.6   1.5 35.6   5.6 5.1   3.9 0.034   0.009 -
Thornton 1/17/22 2230 41.5   0.4 90   1 38.7   0.5 N | 0 0.0   0.0 0.0   0.0 0   0 0.00 0.01 58.2   1.3 34.8   6.1 5.1   3.4 0.035   0.010 22.4   0.7
Lodi (LangeTwins) 1/17/22 2230 44.6   1.6 99   0 44.4   1.6 N | 0 0.0   1.0 0.0   2.7 0   0 0.00 0.00 62.7   2.6 35.2   5.9 4.4   3.0 0.030   0.012 12.3   2.5
Gilbeau Ranch 1/17/22 2230 42.6   0.8 99   0 42.5   0.7 E | 99 0.2   0.2 0.9   0.9 0   0 0.00 0.00 58.5   0.0 35.0   5.5 6.5   0.2 0.028   0.007 -
Galt West 1/17/22 2230 39.4   2.3 95   1 37.9   2.4 W | 281 0.0   0.6 0.2   1.5 0   0 0.00 0.00 57.1   2.1 35.3   5.5 5.6   3.4 0.034   0.010 -
Valley Oak 1/17/22 2230 40.3   0.8 100   0 40.3   0.8 NNE | 33 0.1   1.3 1.0   1.0 0   0 0.00 0.00 59.0   1.3 35.2   5.4 6.1   2.9 0.041   0.009 -
Guard Rd (Lodi WSW) 1/17/22 2230 45.5   2.4 95   0 44.2   2.4 ESE | 113 0.1   0.3 0.8   1.1 0   0 0.00 0.00 61.0   1.8 35.1   7.2 8.7   0.6 0.040   0.008 3.7   5.2
Linden 1/17/22 2230 42.9   0.6 98   1 42.3   0.8 N | 0 0.0   0.2 0.0   1.0 - 0.00 0.00 62.6   1.3 35.6   5.2 7.0   1.0 - 15.7   1.9
DeVries Road-North 1/17/22 2230 43.6   3.1 98   5 43.2   1.7 N | 0 0.0   2.4 0.0   4.3 0   0 0.00 0.00 60.8   0.8 34.3   6.1 5.6   1.9 0.034   0.009 -
Acampo 1/17/22 2230 45.7   3.9 89   1 42.5   3.6 N | 0 0.0   0.0 0.0   0.0 0   0 - 0.00 61.2   1.0 35.9   5.5 6.4   1.7 0.039   0.006 17.5   4.9
Acampo (Woodbridge) 1/17/22 2230 46.3   1.2 95   1 44.9   0.9 ESE | 113 1.8   1.8 2.6   2.6 0   0 0.00 0.01 62.3   2.1 36.3   5.8 7.4   1.0 0.042   0.003 -
Lodi West 1/17/22 2230 47.7   1.7 91   1 45.2   1.4 ESE | 111 0.1   0.1 0.9   0.0 0   0 0.00 0.00 60.6   0.6 37.3   4.7 6.8   2.8 0.043   0.001 3.6   3.6
Teresi-Alpine Rd (East Lodi) 1/17/22 2230 45.5   0.3 94   3 44.0   1.3 SE | 138 0.1   0.1 1.0   0.3 0   0 0.00 0.00 62.8   0.8 36.1   5.6 6.8   2.7 0.050   0.003 -
Victor - N (Katusha) 1/17/22 2230 44.5   0.3 93   1 42.5   0.0 N | 0 0.0   0.0 0.0   0.0 - 0.00 0.00 64.0   4.1 35.6   5.2 - - -
Live Oak 1/17/22 2230 44.6   0.5 98   0 44.0   0.6 NE | 35 0.2   0.8 0.8   0.6 0   0 0.00 0.00 60.7   0.2 35.9   5.0 6.6   1.9 0.041   0.003 -
Sheldon 1/17/22 2230 37.7   3.1 94   1 36.1   3.4 N | 0 0.0   0.8 0.0   2.7 0   0 0.00 0.00 57.5   1.7 31.7   7.4 7.4   0.3 0.035   0.003 10.7   0.4
Sloughhouse 1/17/22 2230 37.0   0.5 100   0 37.0   0.5 NE | 48 0.4   0.2 2.1   0.3 0   0 0.00 0.00 58.5   3.8 30.7   4.9 6.4   1.3 0.027   0.015 -
Utter - Wilson 1/17/22 2230 39.7   0.4 98   2 39.3   0.0 W | 278 0.0   0.0 0.5   0.5 0   0 0.00 0.00 62.4   3.0 32.7   6.0 9.2   2.2 0.037   0.004 -
Clarksburg 1/17/22 2230 40.9   1.2 99   0 40.6   1.2 N | 0 0.0   0.0 0.0   0.0 0   0 0.00 0.00 61.3   2.1 33.2   6.1 6.5   3.0 0.039   0.004 -
Clarksburg-3A2 1/17/22 2230 40.0   0.5 99   1 39.8   0.7 E | 84 1.0   0.8 1.5   0.5 0   0 0.00 0.00 58.5   1.0 33.4   6.2 7.5   2.9 0.036   0.006 -
Gorter - Wilson 1/17/22 2230 36.1   0.5 100   0 36.0   0.6 SW | 220 0.2   0.7 1.0   0.7 0   0 0.00 0.00 60.3   0.8 30.9   4.6 5.6   4.3 0.030   0.008 -
Hood 1/17/22 2230 38.2   1.7 100   0 38.2   1.7 N | 0 0.0   0.6 0.0   1.5 0   0 0.00 0.01 60.7   1.2 33.0   5.7 5.5   2.7 0.032   0.009 -
Courtland-C3 1/17/22 2230 39.8   1.5 100   0 39.7   1.5 N | 0 0.0   1.1 0.0   2.5 - 0.00 0.00 59.4   0.1 33.6   6.7 6.0   4.0 - -
Pacific Fruit 1/17/22 2230 42.2   2.2 99   3 41.9   1.5 N | 0 0.0   0.6 0.0   2.5 0   0 0.00 0.00 62.2   1.6 34.1   7.4 7.2   2.6 0.039   0.013 -
Ryer Island South 1/17/22 2200 39.9   5.3 99   0 39.7   5.4 SE | 135 0.1   3.2 0.8   4.3 0   0 0.00 0.00 61.5   0.4 35.0   6.0 7.5   1.6 0.041   0.008 14.9   0.2
Farmington (Mobley100) 1/17/22 2230 43.2   0.4 93   0 41.3   0.5 N | 0 0.0   0.0 0.0   0.7 - - - 61.5   0.5 37.7   4.8 5.3   0.7 - -
Collegeville 1/17/22 2230 44.4   0.4 96   1 43.2   0.1 E | 98 0.0   0.0 0.4   0.2 0   0 0.00 0.00 63.4   0.6 37.5   4.8 6.3   1.0 0.038   0.016 -
Oakdale North (28 Mile Rd) 1/17/22 2230 44.3   0.6 96   1 43.3   0.7 E | 81 1.2   1.2 2.7   2.7 - - - 58.0   2.6 37.0   6.2 4.9   2.0 - -
Escalon 1/17/22 2230 45.3   0.6 95   0 44.0   0.6 N | 0 0.0   0.0 0.0   0.0 - 0.00 0.00 67.5   0.7 38.2   5.1 6.1   1.5 - 9.5   3.7
Claussen 1/17/22 2230 48.0   0.4 95   3 46.6   0.4 WNW | 290 0.0   1.3 0.6   1.5 0   0 0.00 0.00 65.4   4.5 38.4   2.9 9.0   1.2 0.062   0.020 -
Max     48.0 100 46.6 - 3.4 4.0 3 0.00 0.01 67.5 38.4 9.2 0.062 22.4
Avg     42.4 97 41.5 - 0.4 0.9 0 0.00 - - - - - -
Min     36.1 89 36.0 - 0.0 0.0 0 0.00 0.00 56.0 30.7 4.4 0.025 3.6